Aviation Digital Data Service (ADDS)

Output produced by TAFs form (2042 UTC 16 December 2017)
found at http://www.aviationweather.gov/adds/tafs/
 
KDEN 161953Z VRB05KT 10SM FEW140 BKN220 10/M12 A2980 RMK AO2 SLP060 T01001122 $
KDEN 161739Z 1618/1724 03010KT P6SM BKN150 
     FM170200 07008KT P6SM FEW080 BKN140 
     FM170500 08007KT P6SM SCT014 BKN140 
     FM170700 08007KT P6SM SCT008 BKN014 
     FM170900 10006KT 4SM BR BKN005 OVC008 
     PROB30 1709/1713 1SM -FZDZ BR OVC003 
     FM171500 16007KT P6SM SCT008 OVC014 
     TEMPO 1715/1717 BKN008 
     FM171900 12007KT P6SM SCT025 BKN140